sensor_id;sensor_type;location;lat;lon;timestamp;P1;durP1;ratioP1;P2;durP2;ratioP2
10687;SDS011;5392;42.688;23.298;2023-07-29T00:01:36;1.38;;;0.60;;
10687;SDS011;5392;42.688;23.298;2023-07-29T00:04:03;0.60;;;0.60;;
10687;SDS011;5392;42.688;23.298;2023-07-29T00:06:31;0.50;;;0.50;;
10687;SDS011;5392;42.688;23.298;2023-07-29T00:08:58;0.60;;;0.60;;
10687;SDS011;5392;42.688;23.298;2023-07-29T00:11:25;1.52;;;0.68;;
10687;SDS011;5392;42.688;23.298;2023-07-29T00:13:51;0.52;;;0.52;;
10687;SDS011;5392;42.688;23.298;2023-07-29T00:16:19;1.15;;;0.70;;
10687;SDS011;5392;42.688;23.298;2023-07-29T00:18:49;2.05;;;0.68;;
10687;SDS011;5392;42.688;23.298;2023-07-29T00:21:16;1.30;;;0.90;;
10687;SDS011;5392;42.688;23.298;2023-07-29T00:23:43;1.27;;;0.80;;
10687;SDS011;5392;42.688;23.298;2023-07-29T00:26:09;1.52;;;1.25;;
10687;SDS011;5392;42.688;23.298;2023-07-29T00:28:36;0.95;;;0.80;;
10687;SDS011;5392;42.688;23.298;2023-07-29T00:31:03;2.33;;;0.60;;
10687;SDS011;5392;42.688;23.298;2023-07-29T00:33:30;1.58;;;0.70;;
10687;SDS011;5392;42.688;23.298;2023-07-29T00:35:57;1.77;;;0.88;;
10687;SDS011;5392;42.688;23.298;2023-07-29T00:38:28;3.50;;;0.55;;
10687;SDS011;5392;42.688;23.298;2023-07-29T00:40:57;0.57;;;0.57;;
10687;SDS011;5392;42.688;23.298;2023-07-29T00:43:24;1.73;;;0.52;;
10687;SDS011;5392;42.688;23.298;2023-07-29T00:45:51;0.60;;;0.60;;
10687;SDS011;5392;42.688;23.298;2023-07-29T00:48:18;0.50;;;0.50;;
10687;SDS011;5392;42.688;23.298;2023-07-29T00:50:46;0.50;;;0.50;;
10687;SDS011;5392;42.688;23.298;2023-07-29T00:53:12;1.08;;;0.50;;
10687;SDS011;5392;42.688;23.298;2023-07-29T00:55:39;0.80;;;0.80;;
10687;SDS011;5392;42.688;23.298;2023-07-29T00:58:07;1.27;;;0.82;;
10687;SDS011;5392;42.688;23.298;2023-07-29T01:00:33;0.60;;;0.60;;
10687;SDS011;5392;42.688;23.298;2023-07-29T01:03:00;0.85;;;0.52;;
10687;SDS011;5392;42.688;23.298;2023-07-29T01:05:30;0.52;;;0.50;;
10687;SDS011;5392;42.688;23.298;2023-07-29T01:13:10;1.25;;;0.77;;
10687;SDS011;5392;42.688;23.298;2023-07-29T01:16:04;1.13;;;0.60;;
10687;SDS011;5392;42.688;23.298;2023-07-29T01:18:40;1.15;;;0.60;;
10687;SDS011;5392;42.688;23.298;2023-07-29T01:21:08;1.77;;;0.70;;
10687;SDS011;5392;42.688;23.298;2023-07-29T01:23:36;0.85;;;0.68;;
10687;SDS011;5392;42.688;23.298;2023-07-29T01:26:03;2.05;;;0.70;;
10687;SDS011;5392;42.688;23.298;2023-07-29T01:28:30;1.48;;;0.77;;
10687;SDS011;5392;42.688;23.298;2023-07-29T01:31:01;2.15;;;0.70;;
10687;SDS011;5392;42.688;23.298;2023-07-29T01:33:35;1.17;;;0.82;;
10687;SDS011;5392;42.688;23.298;2023-07-29T01:36:07;1.55;;;0.60;;
10687;SDS011;5392;42.688;23.298;2023-07-29T01:38:40;6.13;;;0.80;;
10687;SDS011;5392;42.688;23.298;2023-07-29T01:41:08;1.00;;;0.90;;
10687;SDS011;5392;42.688;23.298;2023-07-29T01:43:36;1.55;;;0.75;;
10687;SDS011;5392;42.688;23.298;2023-07-29T01:46:10;0.80;;;0.80;;
10687;SDS011;5392;42.688;23.298;2023-07-29T01:48:38;1.23;;;0.60;;
10687;SDS011;5392;42.688;23.298;2023-07-29T01:51:06;1.02;;;0.80;;
10687;SDS011;5392;42.688;23.298;2023-07-29T01:53:33;0.90;;;0.80;;
10687;SDS011;5392;42.688;23.298;2023-07-29T01:56:00;0.70;;;0.70;;
10687;SDS011;5392;42.688;23.298;2023-07-29T01:58:28;2.80;;;0.77;;
10687;SDS011;5392;42.688;23.298;2023-07-29T02:00:54;0.60;;;0.60;;
10687;SDS011;5392;42.688;23.298;2023-07-29T02:03:21;1.50;;;0.73;;
10687;SDS011;5392;42.688;23.298;2023-07-29T02:05:48;1.02;;;0.73;;
10687;SDS011;5392;42.688;23.298;2023-07-29T02:08:14;4.50;;;0.77;;
10687;SDS011;5392;42.688;23.298;2023-07-29T02:10:41;3.92;;;0.95;;
10687;SDS011;5392;42.688;23.298;2023-07-29T02:13:11;0.98;;;0.80;;
10687;SDS011;5392;42.688;23.298;2023-07-29T02:15:38;0.80;;;0.80;;
10687;SDS011;5392;42.688;23.298;2023-07-29T02:18:05;1.70;;;1.00;;
10687;SDS011;5392;42.688;23.298;2023-07-29T02:20:33;1.38;;;1.27;;
10687;SDS011;5392;42.688;23.298;2023-07-29T02:22:59;1.58;;;0.85;;
10687;SDS011;5392;42.688;23.298;2023-07-29T02:25:26;2.25;;;1.02;;
10687;SDS011;5392;42.688;23.298;2023-07-29T02:27:53;1.02;;;1.00;;
10687;SDS011;5392;42.688;23.298;2023-07-29T02:30:20;1.70;;;1.08;;
10687;SDS011;5392;42.688;23.298;2023-07-29T02:32:47;1.45;;;1.35;;
10687;SDS011;5392;42.688;23.298;2023-07-29T02:35:14;1.85;;;0.82;;
10687;SDS011;5392;42.688;23.298;2023-07-29T02:37:41;0.80;;;0.80;;
10687;SDS011;5392;42.688;23.298;2023-07-29T02:40:08;1.60;;;1.27;;
10687;SDS011;5392;42.688;23.298;2023-07-29T02:42:35;1.08;;;1.00;;
10687;SDS011;5392;42.688;23.298;2023-07-29T02:45:02;1.40;;;1.30;;
10687;SDS011;5392;42.688;23.298;2023-07-29T02:47:28;1.52;;;1.30;;
10687;SDS011;5392;42.688;23.298;2023-07-29T02:49:56;1.40;;;1.38;;
10687;SDS011;5392;42.688;23.298;2023-07-29T02:52:22;1.50;;;1.30;;
10687;SDS011;5392;42.688;23.298;2023-07-29T02:54:49;1.65;;;1.35;;
10687;SDS011;5392;42.688;23.298;2023-07-29T02:57:16;4.13;;;1.20;;
10687;SDS011;5392;42.688;23.298;2023-07-29T02:59:43;1.88;;;0.98;;
10687;SDS011;5392;42.688;23.298;2023-07-29T03:02:10;2.67;;;1.10;;
10687;SDS011;5392;42.688;23.298;2023-07-29T03:04:37;1.75;;;1.10;;
10687;SDS011;5392;42.688;23.298;2023-07-29T03:07:04;1.25;;;1.15;;
10687;SDS011;5392;42.688;23.298;2023-07-29T03:09:31;1.30;;;0.80;;
10687;SDS011;5392;42.688;23.298;2023-07-29T03:11:59;1.30;;;0.90;;
10687;SDS011;5392;42.688;23.298;2023-07-29T03:14:26;1.35;;;1.10;;
10687;SDS011;5392;42.688;23.298;2023-07-29T03:16:54;1.30;;;1.10;;
10687;SDS011;5392;42.688;23.298;2023-07-29T03:19:20;0.63;;;0.63;;
10687;SDS011;5392;42.688;23.298;2023-07-29T03:21:47;0.80;;;0.80;;
10687;SDS011;5392;42.688;23.298;2023-07-29T03:24:14;1.95;;;0.60;;
10687;SDS011;5392;42.688;23.298;2023-07-29T03:26:41;0.85;;;0.70;;
10687;SDS011;5392;42.688;23.298;2023-07-29T03:29:11;1.73;;;0.70;;
10687;SDS011;5392;42.688;23.298;2023-07-29T03:31:38;0.80;;;0.75;;
10687;SDS011;5392;42.688;23.298;2023-07-29T03:34:04;0.70;;;0.70;;
10687;SDS011;5392;42.688;23.298;2023-07-29T03:36:31;1.08;;;0.70;;
10687;SDS011;5392;42.688;23.298;2023-07-29T03:38:58;3.25;;;1.00;;
10687;SDS011;5392;42.688;23.298;2023-07-29T03:41:25;0.90;;;0.90;;
10687;SDS011;5392;42.688;23.298;2023-07-29T03:43:51;0.80;;;0.80;;
10687;SDS011;5392;42.688;23.298;2023-07-29T03:46:18;2.42;;;0.75;;
10687;SDS011;5392;42.688;23.298;2023-07-29T03:48:48;1.52;;;0.77;;
10687;SDS011;5392;42.688;23.298;2023-07-29T03:51:14;0.73;;;0.73;;
10687;SDS011;5392;42.688;23.298;2023-07-29T03:53:41;1.02;;;0.90;;
10687;SDS011;5392;42.688;23.298;2023-07-29T03:56:08;0.60;;;0.60;;
10687;SDS011;5392;42.688;23.298;2023-07-29T03:58:35;1.23;;;0.60;;
10687;SDS011;5392;42.688;23.298;2023-07-29T04:01:01;3.67;;;0.63;;
10687;SDS011;5392;42.688;23.298;2023-07-29T04:03:28;0.70;;;0.70;;
10687;SDS011;5392;42.688;23.298;2023-07-29T04:05:55;4.93;;;0.98;;
10687;SDS011;5392;42.688;23.298;2023-07-29T04:08:22;2.85;;;0.80;;
10687;SDS011;5392;42.688;23.298;2023-07-29T04:10:48;1.52;;;0.80;;
10687;SDS011;5392;42.688;23.298;2023-07-29T04:13:15;1.05;;;0.93;;
10687;SDS011;5392;42.688;23.298;2023-07-29T04:15:42;4.45;;;1.23;;
10687;SDS011;5392;42.688;23.298;2023-07-29T04:18:09;3.53;;;1.00;;
10687;SDS011;5392;42.688;23.298;2023-07-29T04:20:35;2.88;;;0.90;;
10687;SDS011;5392;42.688;23.298;2023-07-29T04:23:02;3.92;;;0.88;;
10687;SDS011;5392;42.688;23.298;2023-07-29T04:25:29;3.15;;;1.20;;
10687;SDS011;5392;42.688;23.298;2023-07-29T04:27:55;3.65;;;1.20;;
10687;SDS011;5392;42.688;23.298;2023-07-29T04:30:24;2.50;;;0.70;;
10687;SDS011;5392;42.688;23.298;2023-07-29T04:32:52;3.33;;;0.77;;
10687;SDS011;5392;42.688;23.298;2023-07-29T04:35:19;2.38;;;0.70;;
10687;SDS011;5392;42.688;23.298;2023-07-29T04:37:46;1.92;;;0.70;;
10687;SDS011;5392;42.688;23.298;2023-07-29T04:40:14;6.35;;;0.80;;
10687;SDS011;5392;42.688;23.298;2023-07-29T04:42:41;3.25;;;0.80;;
10687;SDS011;5392;42.688;23.298;2023-07-29T04:45:07;2.78;;;0.95;;
10687;SDS011;5392;42.688;23.298;2023-07-29T04:47:34;0.80;;;0.80;;
10687;SDS011;5392;42.688;23.298;2023-07-29T04:50:01;4.18;;;1.48;;
10687;SDS011;5392;42.688;23.298;2023-07-29T04:52:28;1.10;;;0.90;;
10687;SDS011;5392;42.688;23.298;2023-07-29T04:54:54;0.82;;;0.82;;
10687;SDS011;5392;42.688;23.298;2023-07-29T04:57:21;1.13;;;1.05;;
10687;SDS011;5392;42.688;23.298;2023-07-29T04:59:48;1.95;;;1.15;;
10687;SDS011;5392;42.688;23.298;2023-07-29T05:02:15;1.58;;;1.17;;
10687;SDS011;5392;42.688;23.298;2023-07-29T05:04:41;2.05;;;1.92;;
10687;SDS011;5392;42.688;23.298;2023-07-29T05:07:08;3.13;;;2.92;;
10687;SDS011;5392;42.688;23.298;2023-07-29T05:09:35;3.50;;;3.40;;
10687;SDS011;5392;42.688;23.298;2023-07-29T05:12:01;3.90;;;3.80;;
10687;SDS011;5392;42.688;23.298;2023-07-29T05:14:28;5.68;;;5.20;;
10687;SDS011;5392;42.688;23.298;2023-07-29T05:16:55;4.53;;;4.25;;
10687;SDS011;5392;42.688;23.298;2023-07-29T05:19:22;4.70;;;4.53;;
10687;SDS011;5392;42.688;23.298;2023-07-29T05:21:49;4.25;;;3.88;;
10687;SDS011;5392;42.688;23.298;2023-07-29T05:24:15;2.88;;;2.60;;
10687;SDS011;5392;42.688;23.298;2023-07-29T05:26:42;3.60;;;2.63;;
10687;SDS011;5392;42.688;23.298;2023-07-29T05:29:08;2.70;;;2.50;;
10687;SDS011;5392;42.688;23.298;2023-07-29T05:31:35;2.90;;;2.80;;
10687;SDS011;5392;42.688;23.298;2023-07-29T05:34:02;3.50;;;3.40;;
10687;SDS011;5392;42.688;23.298;2023-07-29T05:36:32;4.28;;;3.28;;
10687;SDS011;5392;42.688;23.298;2023-07-29T05:38:59;3.00;;;2.83;;
10687;SDS011;5392;42.688;23.298;2023-07-29T05:41:26;2.30;;;2.20;;
10687;SDS011;5392;42.688;23.298;2023-07-29T05:43:54;3.13;;;2.17;;
10687;SDS011;5392;42.688;23.298;2023-07-29T05:46:21;2.38;;;2.28;;
10687;SDS011;5392;42.688;23.298;2023-07-29T05:48:47;3.72;;;2.30;;
10687;SDS011;5392;42.688;23.298;2023-07-29T05:51:14;1.77;;;1.05;;
10687;SDS011;5392;42.688;23.298;2023-07-29T05:53:42;1.85;;;1.17;;
10687;SDS011;5392;42.688;23.298;2023-07-29T05:56:09;1.00;;;1.00;;
10687;SDS011;5392;42.688;23.298;2023-07-29T05:58:36;1.05;;;1.00;;
10687;SDS011;5392;42.688;23.298;2023-07-29T06:01:03;2.05;;;1.00;;
10687;SDS011;5392;42.688;23.298;2023-07-29T06:03:30;1.10;;;1.10;;
10687;SDS011;5392;42.688;23.298;2023-07-29T06:05:57;4.60;;;1.20;;
10687;SDS011;5392;42.688;23.298;2023-07-29T06:08:23;0.90;;;0.80;;
10687;SDS011;5392;42.688;23.298;2023-07-29T06:10:50;1.42;;;1.10;;
10687;SDS011;5392;42.688;23.298;2023-07-29T06:13:17;4.07;;;0.93;;
10687;SDS011;5392;42.688;23.298;2023-07-29T06:15:44;1.30;;;1.25;;
10687;SDS011;5392;42.688;23.298;2023-07-29T06:18:10;2.13;;;2.00;;
10687;SDS011;5392;42.688;23.298;2023-07-29T06:20:38;2.25;;;1.27;;
10687;SDS011;5392;42.688;23.298;2023-07-29T06:23:05;1.77;;;0.90;;
10687;SDS011;5392;42.688;23.298;2023-07-29T06:25:32;1.77;;;1.20;;
10687;SDS011;5392;42.688;23.298;2023-07-29T06:27:58;1.20;;;1.10;;
10687;SDS011;5392;42.688;23.298;2023-07-29T06:30:25;1.20;;;1.00;;
10687;SDS011;5392;42.688;23.298;2023-07-29T06:32:52;1.30;;;0.80;;
10687;SDS011;5392;42.688;23.298;2023-07-29T06:35:19;1.13;;;0.82;;
10687;SDS011;5392;42.688;23.298;2023-07-29T06:37:46;2.72;;;0.90;;
10687;SDS011;5392;42.688;23.298;2023-07-29T06:40:12;0.82;;;0.82;;
10687;SDS011;5392;42.688;23.298;2023-07-29T06:42:39;1.23;;;0.95;;
10687;SDS011;5392;42.688;23.298;2023-07-29T06:45:06;1.38;;;0.90;;
10687;SDS011;5392;42.688;23.298;2023-07-29T06:47:33;3.80;;;0.70;;
10687;SDS011;5392;42.688;23.298;2023-07-29T06:50:00;1.58;;;0.60;;
10687;SDS011;5392;42.688;23.298;2023-07-29T06:52:27;1.02;;;0.70;;
10687;SDS011;5392;42.688;23.298;2023-07-29T06:54:54;1.33;;;0.98;;
10687;SDS011;5392;42.688;23.298;2023-07-29T06:57:20;1.63;;;0.73;;
10687;SDS011;5392;42.688;23.298;2023-07-29T06:59:47;3.55;;;0.90;;
10687;SDS011;5392;42.688;23.298;2023-07-29T07:02:14;0.95;;;0.95;;
10687;SDS011;5392;42.688;23.298;2023-07-29T07:04:41;1.48;;;0.90;;
10687;SDS011;5392;42.688;23.298;2023-07-29T07:07:07;1.15;;;0.73;;
10687;SDS011;5392;42.688;23.298;2023-07-29T07:09:34;3.05;;;1.13;;
10687;SDS011;5392;42.688;23.298;2023-07-29T07:12:01;3.03;;;1.00;;
10687;SDS011;5392;42.688;23.298;2023-07-29T07:14:27;0.95;;;0.77;;
10687;SDS011;5392;42.688;23.298;2023-07-29T07:16:54;1.17;;;1.08;;
10687;SDS011;5392;42.688;23.298;2023-07-29T07:19:21;4.45;;;0.73;;
10687;SDS011;5392;42.688;23.298;2023-07-29T07:21:47;6.68;;;0.82;;
10687;SDS011;5392;42.688;23.298;2023-07-29T07:24:14;3.45;;;0.95;;
10687;SDS011;5392;42.688;23.298;2023-07-29T07:26:41;1.95;;;0.80;;
10687;SDS011;5392;42.688;23.298;2023-07-29T07:29:08;3.55;;;0.80;;
10687;SDS011;5392;42.688;23.298;2023-07-29T07:31:34;3.78;;;0.80;;
10687;SDS011;5392;42.688;23.298;2023-07-29T07:34:02;5.20;;;0.80;;
10687;SDS011;5392;42.688;23.298;2023-07-29T07:36:29;4.55;;;1.23;;
10687;SDS011;5392;42.688;23.298;2023-07-29T07:38:56;2.55;;;1.20;;
10687;SDS011;5392;42.688;23.298;2023-07-29T07:41:23;4.15;;;1.30;;
10687;SDS011;5392;42.688;23.298;2023-07-29T07:43:50;1.08;;;0.93;;
10687;SDS011;5392;42.688;23.298;2023-07-29T07:46:17;1.15;;;1.05;;
10687;SDS011;5392;42.688;23.298;2023-07-29T07:48:43;2.30;;;1.35;;
10687;SDS011;5392;42.688;23.298;2023-07-29T07:51:13;2.25;;;1.30;;
10687;SDS011;5392;42.688;23.298;2023-07-29T07:53:40;3.22;;;1.45;;
10687;SDS011;5392;42.688;23.298;2023-07-29T07:56:07;3.13;;;1.13;;
10687;SDS011;5392;42.688;23.298;2023-07-29T07:58:33;1.95;;;1.38;;
10687;SDS011;5392;42.688;23.298;2023-07-29T08:01:04;2.90;;;1.00;;
10687;SDS011;5392;42.688;23.298;2023-07-29T08:03:34;2.58;;;1.10;;
10687;SDS011;5392;42.688;23.298;2023-07-29T08:06:02;2.85;;;1.08;;
10687;SDS011;5392;42.688;23.298;2023-07-29T08:08:28;1.30;;;1.20;;
10687;SDS011;5392;42.688;23.298;2023-07-29T08:10:58;2.47;;;1.10;;
10687;SDS011;5392;42.688;23.298;2023-07-29T08:13:25;4.30;;;1.27;;
10687;SDS011;5392;42.688;23.298;2023-07-29T08:15:52;3.55;;;0.85;;
10687;SDS011;5392;42.688;23.298;2023-07-29T08:18:19;3.90;;;1.00;;
10687;SDS011;5392;42.688;23.298;2023-07-29T08:20:53;4.43;;;1.45;;
10687;SDS011;5392;42.688;23.298;2023-07-29T08:23:30;2.45;;;0.80;;
10687;SDS011;5392;42.688;23.298;2023-07-29T08:25:58;3.30;;;0.95;;
10687;SDS011;5392;42.688;23.298;2023-07-29T08:28:36;1.10;;;0.75;;
10687;SDS011;5392;42.688;23.298;2023-07-29T08:31:04;2.60;;;0.70;;
10687;SDS011;5392;42.688;23.298;2023-07-29T08:33:32;6.10;;;0.90;;
10687;SDS011;5392;42.688;23.298;2023-07-29T08:36:00;3.53;;;1.00;;
10687;SDS011;5392;42.688;23.298;2023-07-29T08:38:27;3.15;;;0.60;;
10687;SDS011;5392;42.688;23.298;2023-07-29T08:41:12;3.25;;;0.70;;
10687;SDS011;5392;42.688;23.298;2023-07-29T08:47:00;3.53;;;0.63;;
10687;SDS011;5392;42.688;23.298;2023-07-29T08:49:27;2.88;;;0.70;;
10687;SDS011;5392;42.688;23.298;2023-07-29T08:51:55;3.22;;;0.50;;
10687;SDS011;5392;42.688;23.298;2023-07-29T08:54:24;0.82;;;0.50;;
10687;SDS011;5392;42.688;23.298;2023-07-29T08:56:51;1.10;;;0.50;;
10687;SDS011;5392;42.688;23.298;2023-07-29T08:59:17;2.20;;;0.40;;
10687;SDS011;5392;42.688;23.298;2023-07-29T09:01:46;0.50;;;0.50;;
10687;SDS011;5392;42.688;23.298;2023-07-29T09:04:13;1.23;;;0.50;;
10687;SDS011;5392;42.688;23.298;2023-07-29T09:06:40;2.85;;;0.57;;
10687;SDS011;5392;42.688;23.298;2023-07-29T09:09:09;4.55;;;0.63;;
10687;SDS011;5392;42.688;23.298;2023-07-29T09:11:36;2.83;;;0.60;;
10687;SDS011;5392;42.688;23.298;2023-07-29T09:14:03;4.20;;;0.70;;
10687;SDS011;5392;42.688;23.298;2023-07-29T09:16:29;1.25;;;0.50;;
10687;SDS011;5392;42.688;23.298;2023-07-29T09:18:57;1.75;;;0.30;;
10687;SDS011;5392;42.688;23.298;2023-07-29T09:21:28;0.40;;;0.40;;
10687;SDS011;5392;42.688;23.298;2023-07-29T09:23:55;1.42;;;0.40;;
10687;SDS011;5392;42.688;23.298;2023-07-29T09:26:25;1.98;;;0.43;;
10687;SDS011;5392;42.688;23.298;2023-07-29T09:28:54;0.70;;;0.45;;
10687;SDS011;5392;42.688;23.298;2023-07-29T09:31:23;0.75;;;0.40;;
10687;SDS011;5392;42.688;23.298;2023-07-29T09:33:57;1.50;;;0.52;;
10687;SDS011;5392;42.688;23.298;2023-07-29T09:36:25;0.20;;;0.20;;
10687;SDS011;5392;42.688;23.298;2023-07-29T09:38:53;1.77;;;0.40;;
10687;SDS011;5392;42.688;23.298;2023-07-29T09:41:24;1.55;;;0.30;;
10687;SDS011;5392;42.688;23.298;2023-07-29T09:43:56;0.45;;;0.30;;
10687;SDS011;5392;42.688;23.298;2023-07-29T09:46:24;0.95;;;0.25;;
10687;SDS011;5392;42.688;23.298;2023-07-29T09:48:58;0.17;;;0.17;;
10687;SDS011;5392;42.688;23.298;2023-07-29T09:51:25;0.20;;;0.20;;
10687;SDS011;5392;42.688;23.298;2023-07-29T09:53:52;0.60;;;0.30;;
10687;SDS011;5392;42.688;23.298;2023-07-29T09:56:18;1.65;;;0.30;;
10687;SDS011;5392;42.688;23.298;2023-07-29T09:58:52;0.30;;;0.30;;
10687;SDS011;5392;42.688;23.298;2023-07-29T10:01:21;1.17;;;0.30;;
10687;SDS011;5392;42.688;23.298;2023-07-29T10:03:49;0.20;;;0.20;;
10687;SDS011;5392;42.688;23.298;2023-07-29T10:06:17;1.45;;;0.30;;
10687;SDS011;5392;42.688;23.298;2023-07-29T10:08:44;0.52;;;0.30;;
10687;SDS011;5392;42.688;23.298;2023-07-29T10:11:12;0.30;;;0.30;;
10687;SDS011;5392;42.688;23.298;2023-07-29T10:13:39;0.47;;;0.20;;
10687;SDS011;5392;42.688;23.298;2023-07-29T10:16:07;0.57;;;0.20;;
10687;SDS011;5392;42.688;23.298;2023-07-29T10:18:33;2.85;;;0.30;;
10687;SDS011;5392;42.688;23.298;2023-07-29T10:21:01;0.30;;;0.30;;
10687;SDS011;5392;42.688;23.298;2023-07-29T10:23:32;0.47;;;0.47;;
10687;SDS011;5392;42.688;23.298;2023-07-29T10:26:04;0.20;;;0.20;;
10687;SDS011;5392;42.688;23.298;2023-07-29T10:28:32;0.20;;;0.20;;
10687;SDS011;5392;42.688;23.298;2023-07-29T10:31:03;0.85;;;0.10;;
10687;SDS011;5392;42.688;23.298;2023-07-29T10:33:32;1.00;;;0.20;;
10687;SDS011;5392;42.688;23.298;2023-07-29T10:36:00;0.30;;;0.20;;
10687;SDS011;5392;42.688;23.298;2023-07-29T10:38:29;0.30;;;0.20;;
10687;SDS011;5392;42.688;23.298;2023-07-29T10:40:56;0.20;;;0.20;;
10687;SDS011;5392;42.688;23.298;2023-07-29T10:45:53;0.30;;;0.20;;
10687;SDS011;5392;42.688;23.298;2023-07-29T10:48:41;2.10;;;0.30;;
10687;SDS011;5392;42.688;23.298;2023-07-29T10:51:28;0.20;;;0.20;;
10687;SDS011;5392;42.688;23.298;2023-07-29T10:53:57;0.13;;;0.13;;
10687;SDS011;5392;42.688;23.298;2023-07-29T10:56:33;0.30;;;0.10;;
10687;SDS011;5392;42.688;23.298;2023-07-29T11:01:38;0.20;;;0.20;;
10687;SDS011;5392;42.688;23.298;2023-07-29T11:09:41;0.30;;;0.20;;
10687;SDS011;5392;42.688;23.298;2023-07-29T11:15:21;1.08;;;0.20;;
10687;SDS011;5392;42.688;23.298;2023-07-29T11:17:54;0.50;;;0.20;;
10687;SDS011;5392;42.688;23.298;2023-07-29T11:20:29;0.88;;;0.20;;
10687;SDS011;5392;42.688;23.298;2023-07-29T11:22:59;0.10;;;0.10;;
10687;SDS011;5392;42.688;23.298;2023-07-29T11:25:28;2.65;;;0.20;;
10687;SDS011;5392;42.688;23.298;2023-07-29T11:27:56;0.10;;;0.10;;
10687;SDS011;5392;42.688;23.298;2023-07-29T11:30:24;0.20;;;0.20;;
10687;SDS011;5392;42.688;23.298;2023-07-29T11:32:55;0.13;;;0.10;;
10687;SDS011;5392;42.688;23.298;2023-07-29T11:35:22;0.45;;;0.20;;
10687;SDS011;5392;42.688;23.298;2023-07-29T11:37:50;0.20;;;0.20;;
10687;SDS011;5392;42.688;23.298;2023-07-29T11:40:18;0.30;;;0.20;;
10687;SDS011;5392;42.688;23.298;2023-07-29T11:42:46;0.10;;;0.10;;
10687;SDS011;5392;42.688;23.298;2023-07-29T11:45:14;0.85;;;0.13;;
10687;SDS011;5392;42.688;23.298;2023-07-29T11:47:43;0.10;;;0.10;;
10687;SDS011;5392;42.688;23.298;2023-07-29T11:50:11;0.10;;;0.10;;
10687;SDS011;5392;42.688;23.298;2023-07-29T11:52:45;0.40;;;0.10;;
10687;SDS011;5392;42.688;23.298;2023-07-29T11:55:13;0.30;;;0.17;;
10687;SDS011;5392;42.688;23.298;2023-07-29T11:57:42;0.20;;;0.20;;
10687;SDS011;5392;42.688;23.298;2023-07-29T12:00:10;0.40;;;0.17;;
10687;SDS011;5392;42.688;23.298;2023-07-29T12:02:39;0.75;;;0.20;;
10687;SDS011;5392;42.688;23.298;2023-07-29T12:05:08;0.55;;;0.10;;
10687;SDS011;5392;42.688;23.298;2023-07-29T12:07:38;0.40;;;0.20;;
10687;SDS011;5392;42.688;23.298;2023-07-29T12:10:06;0.30;;;0.20;;
10687;SDS011;5392;42.688;23.298;2023-07-29T12:12:35;0.38;;;0.20;;
10687;SDS011;5392;42.688;23.298;2023-07-29T12:15:07;0.25;;;0.20;;
10687;SDS011;5392;42.688;23.298;2023-07-29T12:17:39;0.75;;;0.20;;
10687;SDS011;5392;42.688;23.298;2023-07-29T12:20:09;0.20;;;0.20;;
10687;SDS011;5392;42.688;23.298;2023-07-29T12:22:37;0.20;;;0.20;;
10687;SDS011;5392;42.688;23.298;2023-07-29T12:25:04;0.20;;;0.20;;
10687;SDS011;5392;42.688;23.298;2023-07-29T12:27:31;0.22;;;0.22;;
10687;SDS011;5392;42.688;23.298;2023-07-29T12:30:00;1.98;;;0.20;;
10687;SDS011;5392;42.688;23.298;2023-07-29T12:32:30;0.52;;;0.20;;
10687;SDS011;5392;42.688;23.298;2023-07-29T12:34:57;0.55;;;0.20;;
10687;SDS011;5392;42.688;23.298;2023-07-29T12:37:30;0.20;;;0.20;;
10687;SDS011;5392;42.688;23.298;2023-07-29T12:39:59;0.30;;;0.30;;
10687;SDS011;5392;42.688;23.298;2023-07-29T12:42:25;0.40;;;0.30;;
10687;SDS011;5392;42.688;23.298;2023-07-29T12:44:52;0.95;;;0.20;;
10687;SDS011;5392;42.688;23.298;2023-07-29T12:47:19;0.20;;;0.20;;
10687;SDS011;5392;42.688;23.298;2023-07-29T12:49:45;0.17;;;0.17;;
10687;SDS011;5392;42.688;23.298;2023-07-29T12:52:12;0.57;;;0.20;;
10687;SDS011;5392;42.688;23.298;2023-07-29T12:54:39;0.65;;;0.20;;
10687;SDS011;5392;42.688;23.298;2023-07-29T12:57:06;0.22;;;0.22;;
10687;SDS011;5392;42.688;23.298;2023-07-29T12:59:33;0.17;;;0.17;;
10687;SDS011;5392;42.688;23.298;2023-07-29T13:02:00;0.20;;;0.20;;
10687;SDS011;5392;42.688;23.298;2023-07-29T13:04:26;0.20;;;0.20;;
10687;SDS011;5392;42.688;23.298;2023-07-29T13:06:53;1.17;;;0.30;;
10687;SDS011;5392;42.688;23.298;2023-07-29T13:09:20;0.30;;;0.30;;
10687;SDS011;5392;42.688;23.298;2023-07-29T13:11:47;0.20;;;0.20;;
10687;SDS011;5392;42.688;23.298;2023-07-29T13:14:14;2.42;;;0.30;;
10687;SDS011;5392;42.688;23.298;2023-07-29T13:16:40;0.20;;;0.20;;
10687;SDS011;5392;42.688;23.298;2023-07-29T13:19:07;1.83;;;0.20;;
10687;SDS011;5392;42.688;23.298;2023-07-29T13:21:34;0.73;;;0.20;;
10687;SDS011;5392;42.688;23.298;2023-07-29T13:24:00;0.20;;;0.20;;
10687;SDS011;5392;42.688;23.298;2023-07-29T13:26:27;1.02;;;0.20;;
10687;SDS011;5392;42.688;23.298;2023-07-29T13:28:54;1.05;;;0.20;;
10687;SDS011;5392;42.688;23.298;2023-07-29T13:31:22;0.30;;;0.30;;
10687;SDS011;5392;42.688;23.298;2023-07-29T13:33:49;0.20;;;0.20;;
10687;SDS011;5392;42.688;23.298;2023-07-29T13:36:15;0.30;;;0.20;;
10687;SDS011;5392;42.688;23.298;2023-07-29T13:38:42;0.30;;;0.30;;
10687;SDS011;5392;42.688;23.298;2023-07-29T13:41:09;2.72;;;0.30;;
10687;SDS011;5392;42.688;23.298;2023-07-29T13:43:35;1.02;;;0.20;;
10687;SDS011;5392;42.688;23.298;2023-07-29T13:46:02;1.52;;;0.40;;
10687;SDS011;5392;42.688;23.298;2023-07-29T13:48:29;2.42;;;0.40;;
10687;SDS011;5392;42.688;23.298;2023-07-29T13:50:56;0.88;;;0.40;;
10687;SDS011;5392;42.688;23.298;2023-07-29T13:53:22;2.58;;;0.50;;
10687;SDS011;5392;42.688;23.298;2023-07-29T13:55:49;0.35;;;0.30;;
10687;SDS011;5392;42.688;23.298;2023-07-29T13:58:16;0.30;;;0.30;;
10687;SDS011;5392;42.688;23.298;2023-07-29T14:00:42;0.20;;;0.20;;
10687;SDS011;5392;42.688;23.298;2023-07-29T14:03:09;2.42;;;0.30;;
10687;SDS011;5392;42.688;23.298;2023-07-29T14:05:36;0.20;;;0.20;;
10687;SDS011;5392;42.688;23.298;2023-07-29T14:08:03;0.55;;;0.20;;
10687;SDS011;5392;42.688;23.298;2023-07-29T14:10:29;0.43;;;0.30;;
10687;SDS011;5392;42.688;23.298;2023-07-29T14:12:56;0.73;;;0.20;;
10687;SDS011;5392;42.688;23.298;2023-07-29T14:15:23;0.20;;;0.20;;
10687;SDS011;5392;42.688;23.298;2023-07-29T14:17:50;0.30;;;0.30;;
10687;SDS011;5392;42.688;23.298;2023-07-29T14:20:16;0.20;;;0.20;;
10687;SDS011;5392;42.688;23.298;2023-07-29T14:22:47;2.17;;;0.22;;
10687;SDS011;5392;42.688;23.298;2023-07-29T14:25:14;1.55;;;0.30;;
10687;SDS011;5392;42.688;23.298;2023-07-29T14:27:41;1.20;;;0.20;;
10687;SDS011;5392;42.688;23.298;2023-07-29T14:30:08;0.57;;;0.22;;
10687;SDS011;5392;42.688;23.298;2023-07-29T14:32:35;0.20;;;0.20;;
10687;SDS011;5392;42.688;23.298;2023-07-29T14:35:01;0.30;;;0.30;;
10687;SDS011;5392;42.688;23.298;2023-07-29T14:37:30;0.22;;;0.22;;
10687;SDS011;5392;42.688;23.298;2023-07-29T14:39:58;0.28;;;0.20;;
10687;SDS011;5392;42.688;23.298;2023-07-29T14:42:26;0.30;;;0.30;;
10687;SDS011;5392;42.688;23.298;2023-07-29T14:44:53;0.20;;;0.20;;
10687;SDS011;5392;42.688;23.298;2023-07-29T14:47:20;0.20;;;0.20;;
10687;SDS011;5392;42.688;23.298;2023-07-29T14:49:47;0.25;;;0.20;;
10687;SDS011;5392;42.688;23.298;2023-07-29T14:52:14;2.45;;;0.30;;
10687;SDS011;5392;42.688;23.298;2023-07-29T14:54:40;0.82;;;0.20;;
10687;SDS011;5392;42.688;23.298;2023-07-29T14:57:07;0.20;;;0.20;;
10687;SDS011;5392;42.688;23.298;2023-07-29T14:59:36;0.20;;;0.20;;
10687;SDS011;5392;42.688;23.298;2023-07-29T15:02:02;0.28;;;0.28;;
10687;SDS011;5392;42.688;23.298;2023-07-29T15:04:29;0.30;;;0.30;;
10687;SDS011;5392;42.688;23.298;2023-07-29T15:06:56;0.50;;;0.30;;
10687;SDS011;5392;42.688;23.298;2023-07-29T15:09:24;0.75;;;0.20;;
10687;SDS011;5392;42.688;23.298;2023-07-29T15:11:51;1.10;;;0.30;;
10687;SDS011;5392;42.688;23.298;2023-07-29T15:14:17;0.20;;;0.20;;